sensor_id;sensor_type;location;lat;lon;timestamp;P1;durP1;ratioP1;P2;durP2;ratioP2
56653;SDS011;45096;52.302;4.634;2023-03-17T00:00:07;2.25;;;2.08;;
56653;SDS011;45096;52.302;4.634;2023-03-17T00:02:33;3.05;;;2.33;;
56653;SDS011;45096;52.302;4.634;2023-03-17T00:05:00;2.53;;;2.35;;
56653;SDS011;45096;52.302;4.634;2023-03-17T00:07:26;2.72;;;2.58;;
56653;SDS011;45096;52.302;4.634;2023-03-17T00:09:51;2.13;;;1.98;;
56653;SDS011;45096;52.302;4.634;2023-03-17T00:12:17;2.80;;;2.60;;
56653;SDS011;45096;52.302;4.634;2023-03-17T00:14:42;2.35;;;2.10;;
56653;SDS011;45096;52.302;4.634;2023-03-17T00:17:08;3.35;;;2.30;;
56653;SDS011;45096;52.302;4.634;2023-03-17T00:19:35;2.53;;;2.28;;
56653;SDS011;45096;52.302;4.634;2023-03-17T00:22:02;2.25;;;2.15;;
56653;SDS011;45096;52.302;4.634;2023-03-17T00:24:28;2.60;;;2.13;;
56653;SDS011;45096;52.302;4.634;2023-03-17T00:26:53;2.65;;;2.45;;
56653;SDS011;45096;52.302;4.634;2023-03-17T00:29:19;2.60;;;2.00;;
56653;SDS011;45096;52.302;4.634;2023-03-17T00:31:44;3.55;;;2.80;;
56653;SDS011;45096;52.302;4.634;2023-03-17T00:34:10;2.35;;;2.20;;
56653;SDS011;45096;52.302;4.634;2023-03-17T00:36:36;2.20;;;2.10;;
56653;SDS011;45096;52.302;4.634;2023-03-17T00:39:05;2.05;;;1.92;;
56653;SDS011;45096;52.302;4.634;2023-03-17T00:41:33;2.70;;;2.38;;
56653;SDS011;45096;52.302;4.634;2023-03-17T00:43:59;2.40;;;2.30;;
56653;SDS011;45096;52.302;4.634;2023-03-17T00:46:25;2.15;;;2.05;;
56653;SDS011;45096;52.302;4.634;2023-03-17T00:48:51;2.50;;;2.30;;
56653;SDS011;45096;52.302;4.634;2023-03-17T00:51:17;2.92;;;2.42;;
56653;SDS011;45096;52.302;4.634;2023-03-17T00:53:42;2.58;;;2.10;;
56653;SDS011;45096;52.302;4.634;2023-03-17T00:56:11;2.53;;;2.42;;
56653;SDS011;45096;52.302;4.634;2023-03-17T00:58:38;2.60;;;2.40;;
56653;SDS011;45096;52.302;4.634;2023-03-17T01:01:03;2.55;;;2.38;;
56653;SDS011;45096;52.302;4.634;2023-03-17T01:03:29;2.60;;;2.40;;
56653;SDS011;45096;52.302;4.634;2023-03-17T01:05:54;2.50;;;2.30;;
56653;SDS011;45096;52.302;4.634;2023-03-17T01:08:20;2.50;;;2.30;;
56653;SDS011;45096;52.302;4.634;2023-03-17T01:10:46;3.38;;;2.55;;
56653;SDS011;45096;52.302;4.634;2023-03-17T01:13:12;2.35;;;2.25;;
56653;SDS011;45096;52.302;4.634;2023-03-17T01:15:38;2.40;;;2.25;;
56653;SDS011;45096;52.302;4.634;2023-03-17T01:18:08;2.80;;;2.58;;
56653;SDS011;45096;52.302;4.634;2023-03-17T01:20:34;2.50;;;2.38;;
56653;SDS011;45096;52.302;4.634;2023-03-17T01:22:59;2.92;;;2.72;;
56653;SDS011;45096;52.302;4.634;2023-03-17T01:25:25;2.50;;;2.30;;
56653;SDS011;45096;52.302;4.634;2023-03-17T01:27:50;3.42;;;3.13;;
56653;SDS011;45096;52.302;4.634;2023-03-17T01:30:21;2.67;;;2.47;;
56653;SDS011;45096;52.302;4.634;2023-03-17T01:32:49;2.30;;;2.20;;
56653;SDS011;45096;52.302;4.634;2023-03-17T01:35:14;3.78;;;2.83;;
56653;SDS011;45096;52.302;4.634;2023-03-17T01:37:40;4.70;;;2.60;;
56653;SDS011;45096;52.302;4.634;2023-03-17T01:40:06;2.70;;;2.47;;
56653;SDS011;45096;52.302;4.634;2023-03-17T01:42:35;2.75;;;2.55;;
56653;SDS011;45096;52.302;4.634;2023-03-17T01:45:02;2.92;;;2.53;;
56653;SDS011;45096;52.302;4.634;2023-03-17T01:47:30;3.00;;;2.55;;
56653;SDS011;45096;52.302;4.634;2023-03-17T01:49:55;3.40;;;2.30;;
56653;SDS011;45096;52.302;4.634;2023-03-17T01:52:21;2.58;;;2.38;;
56653;SDS011;45096;52.302;4.634;2023-03-17T01:54:48;2.00;;;1.90;;
56653;SDS011;45096;52.302;4.634;2023-03-17T01:57:16;5.15;;;2.75;;
56653;SDS011;45096;52.302;4.634;2023-03-17T01:59:44;2.65;;;2.45;;
56653;SDS011;45096;52.302;4.634;2023-03-17T02:02:12;2.42;;;2.22;;
56653;SDS011;45096;52.302;4.634;2023-03-17T02:04:40;2.40;;;2.30;;
56653;SDS011;45096;52.302;4.634;2023-03-17T02:07:06;2.53;;;2.28;;
56653;SDS011;45096;52.302;4.634;2023-03-17T02:09:32;2.88;;;2.67;;
56653;SDS011;45096;52.302;4.634;2023-03-17T02:11:58;2.55;;;2.38;;
56653;SDS011;45096;52.302;4.634;2023-03-17T02:14:25;2.47;;;2.28;;
56653;SDS011;45096;52.302;4.634;2023-03-17T02:16:50;2.50;;;2.30;;
56653;SDS011;45096;52.302;4.634;2023-03-17T02:19:16;4.72;;;2.90;;
56653;SDS011;45096;52.302;4.634;2023-03-17T02:21:43;2.88;;;2.53;;
56653;SDS011;45096;52.302;4.634;2023-03-17T02:24:18;2.58;;;2.40;;
56653;SDS011;45096;52.302;4.634;2023-03-17T02:26:46;2.50;;;2.30;;
56653;SDS011;45096;52.302;4.634;2023-03-17T02:29:12;2.50;;;2.30;;
56653;SDS011;45096;52.302;4.634;2023-03-17T02:31:37;2.70;;;2.50;;
56653;SDS011;45096;52.302;4.634;2023-03-17T02:34:03;2.10;;;2.00;;
56653;SDS011;45096;52.302;4.634;2023-03-17T02:36:28;2.90;;;2.17;;
56653;SDS011;45096;52.302;4.634;2023-03-17T02:38:55;2.55;;;2.25;;
56653;SDS011;45096;52.302;4.634;2023-03-17T02:41:21;2.40;;;2.30;;
56653;SDS011;45096;52.302;4.634;2023-03-17T02:43:46;2.30;;;2.20;;
56653;SDS011;45096;52.302;4.634;2023-03-17T02:46:11;2.90;;;2.70;;
56653;SDS011;45096;52.302;4.634;2023-03-17T02:48:37;2.55;;;2.35;;
56653;SDS011;45096;52.302;4.634;2023-03-17T02:51:03;2.70;;;2.50;;
56653;SDS011;45096;52.302;4.634;2023-03-17T02:53:29;3.13;;;2.83;;
56653;SDS011;45096;52.302;4.634;2023-03-17T02:55:56;2.80;;;2.60;;
56653;SDS011;45096;52.302;4.634;2023-03-17T02:58:21;2.58;;;2.40;;
56653;SDS011;45096;52.302;4.634;2023-03-17T03:00:47;2.80;;;2.60;;
56653;SDS011;45096;52.302;4.634;2023-03-17T03:03:12;3.28;;;2.47;;
56653;SDS011;45096;52.302;4.634;2023-03-17T03:05:38;3.10;;;2.38;;
56653;SDS011;45096;52.302;4.634;2023-03-17T03:08:03;2.72;;;2.55;;
56653;SDS011;45096;52.302;4.634;2023-03-17T03:10:29;2.30;;;2.20;;
56653;SDS011;45096;52.302;4.634;2023-03-17T03:12:56;3.38;;;2.55;;
56653;SDS011;45096;52.302;4.634;2023-03-17T03:15:21;2.45;;;2.35;;
56653;SDS011;45096;52.302;4.634;2023-03-17T03:17:47;2.42;;;2.17;;
56653;SDS011;45096;52.302;4.634;2023-03-17T03:20:12;4.28;;;2.67;;
56653;SDS011;45096;52.302;4.634;2023-03-17T03:22:37;2.78;;;2.58;;
56653;SDS011;45096;52.302;4.634;2023-03-17T03:25:03;3.28;;;2.97;;
56653;SDS011;45096;52.302;4.634;2023-03-17T03:27:29;3.05;;;2.78;;
56653;SDS011;45096;52.302;4.634;2023-03-17T03:29:56;2.35;;;2.25;;
56653;SDS011;45096;52.302;4.634;2023-03-17T03:32:21;2.80;;;2.63;;
56653;SDS011;45096;52.302;4.634;2023-03-17T03:34:47;2.35;;;2.25;;
56653;SDS011;45096;52.302;4.634;2023-03-17T03:37:12;2.50;;;2.33;;
56653;SDS011;45096;52.302;4.634;2023-03-17T03:39:37;2.70;;;2.50;;
56653;SDS011;45096;52.302;4.634;2023-03-17T03:42:03;3.25;;;2.85;;
56653;SDS011;45096;52.302;4.634;2023-03-17T03:44:29;4.15;;;2.17;;
56653;SDS011;45096;52.302;4.634;2023-03-17T03:46:55;2.75;;;2.55;;
56653;SDS011;45096;52.302;4.634;2023-03-17T03:49:21;2.45;;;2.25;;
56653;SDS011;45096;52.302;4.634;2023-03-17T03:51:46;3.70;;;2.78;;
56653;SDS011;45096;52.302;4.634;2023-03-17T03:54:12;2.50;;;2.30;;
56653;SDS011;45096;52.302;4.634;2023-03-17T03:56:37;2.83;;;2.63;;
56653;SDS011;45096;52.302;4.634;2023-03-17T03:59:03;2.90;;;2.38;;
56653;SDS011;45096;52.302;4.634;2023-03-17T04:01:28;2.92;;;2.72;;
56653;SDS011;45096;52.302;4.634;2023-03-17T04:03:55;3.75;;;2.45;;
56653;SDS011;45096;52.302;4.634;2023-03-17T04:06:20;3.00;;;2.80;;
56653;SDS011;45096;52.302;4.634;2023-03-17T04:08:46;2.70;;;2.50;;
56653;SDS011;45096;52.302;4.634;2023-03-17T04:11:11;2.72;;;2.53;;
56653;SDS011;45096;52.302;4.634;2023-03-17T04:13:37;2.70;;;2.53;;
56653;SDS011;45096;52.302;4.634;2023-03-17T04:16:02;2.78;;;2.58;;
56653;SDS011;45096;52.302;4.634;2023-03-17T04:18:28;2.58;;;2.30;;
56653;SDS011;45096;52.302;4.634;2023-03-17T04:20:55;2.78;;;2.58;;
56653;SDS011;45096;52.302;4.634;2023-03-17T04:23:20;2.50;;;2.30;;
56653;SDS011;45096;52.302;4.634;2023-03-17T04:25:46;3.70;;;2.47;;
56653;SDS011;45096;52.302;4.634;2023-03-17T04:28:11;2.38;;;2.28;;
56653;SDS011;45096;52.302;4.634;2023-03-17T04:30:36;2.53;;;2.33;;
56653;SDS011;45096;52.302;4.634;2023-03-17T04:33:02;2.42;;;2.20;;
56653;SDS011;45096;52.302;4.634;2023-03-17T04:35:27;2.60;;;2.35;;
56653;SDS011;45096;52.302;4.634;2023-03-17T04:37:54;2.97;;;2.60;;
56653;SDS011;45096;52.302;4.634;2023-03-17T04:40:20;2.55;;;2.45;;
56653;SDS011;45096;52.302;4.634;2023-03-17T04:42:45;2.65;;;2.47;;
56653;SDS011;45096;52.302;4.634;2023-03-17T04:45:11;2.30;;;2.20;;
56653;SDS011;45096;52.302;4.634;2023-03-17T04:47:37;2.47;;;2.38;;
56653;SDS011;45096;52.302;4.634;2023-03-17T04:50:03;2.53;;;2.42;;
56653;SDS011;45096;52.302;4.634;2023-03-17T04:52:29;4.20;;;2.97;;
56653;SDS011;45096;52.302;4.634;2023-03-17T04:54:56;2.60;;;2.45;;
56653;SDS011;45096;52.302;4.634;2023-03-17T04:57:21;2.90;;;2.53;;
56653;SDS011;45096;52.302;4.634;2023-03-17T04:59:47;2.88;;;2.67;;
56653;SDS011;45096;52.302;4.634;2023-03-17T05:02:12;3.20;;;2.33;;
56653;SDS011;45096;52.302;4.634;2023-03-17T05:04:38;3.63;;;2.90;;
56653;SDS011;45096;52.302;4.634;2023-03-17T05:07:03;2.88;;;2.67;;
56653;SDS011;45096;52.302;4.634;2023-03-17T05:09:29;2.97;;;2.78;;
56653;SDS011;45096;52.302;4.634;2023-03-17T05:11:55;2.78;;;2.55;;
56653;SDS011;45096;52.302;4.634;2023-03-17T05:14:21;3.20;;;2.85;;
56653;SDS011;45096;52.302;4.634;2023-03-17T05:16:47;2.60;;;2.40;;
56653;SDS011;45096;52.302;4.634;2023-03-17T05:19:12;2.65;;;2.45;;
56653;SDS011;45096;52.302;4.634;2023-03-17T05:21:38;2.55;;;2.35;;
56653;SDS011;45096;52.302;4.634;2023-03-17T05:24:04;2.97;;;2.63;;
56653;SDS011;45096;52.302;4.634;2023-03-17T05:26:29;2.58;;;2.38;;
56653;SDS011;45096;52.302;4.634;2023-03-17T05:28:56;3.42;;;2.60;;
56653;SDS011;45096;52.302;4.634;2023-03-17T05:31:21;3.13;;;2.63;;
56653;SDS011;45096;52.302;4.634;2023-03-17T05:33:47;2.75;;;2.55;;
56653;SDS011;45096;52.302;4.634;2023-03-17T05:36:12;2.85;;;2.65;;
56653;SDS011;45096;52.302;4.634;2023-03-17T05:38:38;2.70;;;2.60;;
56653;SDS011;45096;52.302;4.634;2023-03-17T05:41:03;3.20;;;2.58;;
56653;SDS011;45096;52.302;4.634;2023-03-17T05:43:29;2.60;;;2.42;;
56653;SDS011;45096;52.302;4.634;2023-03-17T05:45:56;2.78;;;2.58;;
56653;SDS011;45096;52.302;4.634;2023-03-17T05:48:21;2.90;;;2.70;;
56653;SDS011;45096;52.302;4.634;2023-03-17T05:50:47;2.35;;;2.25;;
56653;SDS011;45096;52.302;4.634;2023-03-17T05:53:12;2.92;;;2.67;;
56653;SDS011;45096;52.302;4.634;2023-03-17T05:55:38;2.28;;;2.17;;
56653;SDS011;45096;52.302;4.634;2023-03-17T05:58:03;2.85;;;2.65;;
56653;SDS011;45096;52.302;4.634;2023-03-17T06:00:29;3.58;;;2.78;;
56653;SDS011;45096;52.302;4.634;2023-03-17T06:02:56;4.75;;;4.30;;
56653;SDS011;45096;52.302;4.634;2023-03-17T06:05:21;7.68;;;5.40;;
56653;SDS011;45096;52.302;4.634;2023-03-17T06:07:47;6.32;;;5.03;;
56653;SDS011;45096;52.302;4.634;2023-03-17T06:10:12;8.13;;;5.97;;
56653;SDS011;45096;52.302;4.634;2023-03-17T06:12:37;7.03;;;6.32;;
56653;SDS011;45096;52.302;4.634;2023-03-17T06:15:03;6.32;;;5.53;;
56653;SDS011;45096;52.302;4.634;2023-03-17T06:17:30;6.63;;;5.75;;
56653;SDS011;45096;52.302;4.634;2023-03-17T06:19:57;6.85;;;5.38;;
56653;SDS011;45096;52.302;4.634;2023-03-17T06:22:22;7.38;;;5.78;;
56653;SDS011;45096;52.302;4.634;2023-03-17T06:24:47;5.72;;;5.18;;
56653;SDS011;45096;52.302;4.634;2023-03-17T06:27:13;7.07;;;5.35;;
56653;SDS011;45096;52.302;4.634;2023-03-17T06:29:38;7.50;;;5.18;;
56653;SDS011;45096;52.302;4.634;2023-03-17T06:32:04;5.40;;;4.88;;
56653;SDS011;45096;52.302;4.634;2023-03-17T06:34:30;6.07;;;5.13;;
56653;SDS011;45096;52.302;4.634;2023-03-17T06:36:56;5.80;;;5.15;;
56653;SDS011;45096;52.302;4.634;2023-03-17T06:39:22;5.60;;;5.10;;
56653;SDS011;45096;52.302;4.634;2023-03-17T06:41:48;7.10;;;4.97;;
56653;SDS011;45096;52.302;4.634;2023-03-17T06:44:13;5.05;;;4.55;;
56653;SDS011;45096;52.302;4.634;2023-03-17T06:46:39;8.07;;;4.53;;
56653;SDS011;45096;52.302;4.634;2023-03-17T06:49:04;6.18;;;4.50;;
56653;SDS011;45096;52.302;4.634;2023-03-17T06:51:30;5.55;;;4.63;;
56653;SDS011;45096;52.302;4.634;2023-03-17T06:53:57;5.43;;;4.53;;
56653;SDS011;45096;52.302;4.634;2023-03-17T06:56:22;6.78;;;4.93;;
56653;SDS011;45096;52.302;4.634;2023-03-17T06:58:48;11.63;;;4.82;;
56653;SDS011;45096;52.302;4.634;2023-03-17T07:01:13;5.10;;;4.28;;
56653;SDS011;45096;52.302;4.634;2023-03-17T07:03:39;6.53;;;4.63;;
56653;SDS011;45096;52.302;4.634;2023-03-17T07:06:04;6.68;;;3.78;;
56653;SDS011;45096;52.302;4.634;2023-03-17T07:08:30;11.00;;;3.88;;
56653;SDS011;45096;52.302;4.634;2023-03-17T07:10:57;6.63;;;4.32;;
56653;SDS011;45096;52.302;4.634;2023-03-17T07:13:22;4.20;;;3.65;;
56653;SDS011;45096;52.302;4.634;2023-03-17T07:15:48;4.32;;;3.80;;
56653;SDS011;45096;52.302;4.634;2023-03-17T07:18:14;6.28;;;4.13;;
56653;SDS011;45096;52.302;4.634;2023-03-17T07:20:39;5.07;;;3.50;;
56653;SDS011;45096;52.302;4.634;2023-03-17T07:23:05;4.43;;;3.75;;
56653;SDS011;45096;52.302;4.634;2023-03-17T07:25:31;3.90;;;3.55;;
56653;SDS011;45096;52.302;4.634;2023-03-17T07:27:57;6.43;;;4.22;;
56653;SDS011;45096;52.302;4.634;2023-03-17T07:30:23;4.25;;;3.65;;
56653;SDS011;45096;52.302;4.634;2023-03-17T07:32:48;5.43;;;3.72;;
56653;SDS011;45096;52.302;4.634;2023-03-17T07:35:14;6.70;;;4.43;;
56653;SDS011;45096;52.302;4.634;2023-03-17T07:37:39;5.45;;;3.53;;
56653;SDS011;45096;52.302;4.634;2023-03-17T07:40:05;4.85;;;3.83;;
56653;SDS011;45096;52.302;4.634;2023-03-17T07:42:33;3.60;;;3.30;;
56653;SDS011;45096;52.302;4.634;2023-03-17T07:44:59;6.07;;;3.78;;
56653;SDS011;45096;52.302;4.634;2023-03-17T07:47:25;4.03;;;3.58;;
56653;SDS011;45096;52.302;4.634;2023-03-17T07:49:50;4.78;;;3.13;;
56653;SDS011;45096;52.302;4.634;2023-03-17T07:52:16;3.47;;;3.15;;
56653;SDS011;45096;52.302;4.634;2023-03-17T07:54:42;4.28;;;3.30;;
56653;SDS011;45096;52.302;4.634;2023-03-17T07:57:08;3.67;;;3.38;;
56653;SDS011;45096;52.302;4.634;2023-03-17T07:59:33;4.28;;;3.67;;
56653;SDS011;45096;52.302;4.634;2023-03-17T08:02:00;3.78;;;3.40;;
56653;SDS011;45096;52.302;4.634;2023-03-17T08:04:26;3.90;;;3.50;;
56653;SDS011;45096;52.302;4.634;2023-03-17T08:06:51;3.58;;;3.25;;
56653;SDS011;45096;52.302;4.634;2023-03-17T08:09:17;3.50;;;3.20;;
56653;SDS011;45096;52.302;4.634;2023-03-17T08:11:42;3.50;;;2.75;;
56653;SDS011;45096;52.302;4.634;2023-03-17T08:14:08;3.55;;;3.28;;
56653;SDS011;45096;52.302;4.634;2023-03-17T08:16:33;3.58;;;3.28;;
56653;SDS011;45096;52.302;4.634;2023-03-17T08:19:00;3.65;;;3.10;;
56653;SDS011;45096;52.302;4.634;2023-03-17T08:21:26;4.65;;;3.33;;
56653;SDS011;45096;52.302;4.634;2023-03-17T08:23:51;3.05;;;2.75;;
56653;SDS011;45096;52.302;4.634;2023-03-17T08:26:17;3.40;;;3.15;;
56653;SDS011;45096;52.302;4.634;2023-03-17T08:28:42;3.47;;;3.17;;
56653;SDS011;45096;52.302;4.634;2023-03-17T08:31:08;3.45;;;3.15;;
56653;SDS011;45096;52.302;4.634;2023-03-17T08:33:34;4.00;;;3.03;;
56653;SDS011;45096;52.302;4.634;2023-03-17T08:36:03;2.92;;;2.70;;
56653;SDS011;45096;52.302;4.634;2023-03-17T08:38:29;3.33;;;3.03;;
56653;SDS011;45096;52.302;4.634;2023-03-17T08:40:58;2.95;;;2.65;;
56653;SDS011;45096;52.302;4.634;2023-03-17T08:43:24;3.03;;;2.78;;
56653;SDS011;45096;52.302;4.634;2023-03-17T08:45:50;4.15;;;3.03;;
56653;SDS011;45096;52.302;4.634;2023-03-17T08:48:15;3.90;;;3.50;;
56653;SDS011;45096;52.302;4.634;2023-03-17T08:50:40;3.35;;;3.05;;
56653;SDS011;45096;52.302;4.634;2023-03-17T08:53:07;3.28;;;2.97;;
56653;SDS011;45096;52.302;4.634;2023-03-17T08:55:33;3.25;;;2.95;;
56653;SDS011;45096;52.302;4.634;2023-03-17T08:57:58;3.13;;;2.78;;
56653;SDS011;45096;52.302;4.634;2023-03-17T09:00:23;4.43;;;2.67;;
56653;SDS011;45096;52.302;4.634;2023-03-17T09:02:49;3.58;;;3.28;;
56653;SDS011;45096;52.302;4.634;2023-03-17T09:05:15;3.30;;;3.05;;
56653;SDS011;45096;52.302;4.634;2023-03-17T09:07:41;3.22;;;2.97;;
56653;SDS011;45096;52.302;4.634;2023-03-17T09:10:08;3.38;;;3.08;;
56653;SDS011;45096;52.302;4.634;2023-03-17T09:12:34;3.45;;;3.03;;
56653;SDS011;45096;52.302;4.634;2023-03-17T09:15:00;2.97;;;2.78;;
56653;SDS011;45096;52.302;4.634;2023-03-17T09:17:25;4.45;;;3.78;;
56653;SDS011;45096;52.302;4.634;2023-03-17T09:19:51;3.83;;;3.45;;
56653;SDS011;45096;52.302;4.634;2023-03-17T09:22:16;4.05;;;3.65;;
56653;SDS011;45096;52.302;4.634;2023-03-17T09:24:42;4.53;;;3.80;;
56653;SDS011;45096;52.302;4.634;2023-03-17T09:27:10;4.18;;;3.75;;
56653;SDS011;45096;52.302;4.634;2023-03-17T09:29:35;3.83;;;3.53;;
56653;SDS011;45096;52.302;4.634;2023-03-17T09:32:01;5.80;;;4.20;;
56653;SDS011;45096;52.302;4.634;2023-03-17T09:34:26;4.50;;;3.80;;
56653;SDS011;45096;52.302;4.634;2023-03-17T09:36:52;5.63;;;4.20;;
56653;SDS011;45096;52.302;4.634;2023-03-17T09:39:18;4.38;;;3.97;;
56653;SDS011;45096;52.302;4.634;2023-03-17T09:41:47;5.20;;;4.57;;
56653;SDS011;45096;52.302;4.634;2023-03-17T09:44:29;5.10;;;4.00;;
56653;SDS011;45096;52.302;4.634;2023-03-17T09:47:03;7.00;;;3.80;;
56653;SDS011;45096;52.302;4.634;2023-03-17T09:49:34;6.78;;;4.07;;
56653;SDS011;45096;52.302;4.634;2023-03-17T09:52:02;4.25;;;3.70;;
56653;SDS011;45096;52.302;4.634;2023-03-17T09:54:29;4.55;;;3.95;;
56653;SDS011;45096;52.302;4.634;2023-03-17T09:56:58;4.25;;;3.67;;
56653;SDS011;45096;52.302;4.634;2023-03-17T09:59:29;5.50;;;4.00;;
56653;SDS011;45096;52.302;4.634;2023-03-17T10:01:57;4.50;;;4.10;;
56653;SDS011;45096;52.302;4.634;2023-03-17T10:04:22;6.00;;;3.85;;
56653;SDS011;45096;52.302;4.634;2023-03-17T10:06:48;6.13;;;4.20;;
56653;SDS011;45096;52.302;4.634;2023-03-17T10:09:16;6.43;;;4.07;;
56653;SDS011;45096;52.302;4.634;2023-03-17T10:11:45;4.88;;;4.47;;
56653;SDS011;45096;52.302;4.634;2023-03-17T10:14:26;5.15;;;4.38;;
56653;SDS011;45096;52.302;4.634;2023-03-17T10:16:59;6.30;;;4.22;;
56653;SDS011;45096;52.302;4.634;2023-03-17T10:19:27;5.13;;;4.63;;
56653;SDS011;45096;52.302;4.634;2023-03-17T10:21:55;4.80;;;3.95;;
56653;SDS011;45096;52.302;4.634;2023-03-17T10:24:22;5.47;;;4.65;;
56653;SDS011;45096;52.302;4.634;2023-03-17T10:26:47;5.32;;;4.85;;
56653;SDS011;45096;52.302;4.634;2023-03-17T10:29:15;5.25;;;4.80;;
56653;SDS011;45096;52.302;4.634;2023-03-17T10:31:43;5.30;;;4.10;;
56653;SDS011;45096;52.302;4.634;2023-03-17T10:34:12;7.28;;;4.63;;
56653;SDS011;45096;52.302;4.634;2023-03-17T10:36:40;6.97;;;5.00;;
56653;SDS011;45096;52.302;4.634;2023-03-17T10:39:13;4.95;;;4.50;;
56653;SDS011;45096;52.302;4.634;2023-03-17T10:41:42;5.15;;;4.65;;
56653;SDS011;45096;52.302;4.634;2023-03-17T10:44:19;5.30;;;4.80;;
56653;SDS011;45096;52.302;4.634;2023-03-17T10:46:51;4.97;;;4.18;;
56653;SDS011;45096;52.302;4.634;2023-03-17T10:49:18;5.45;;;4.80;;
56653;SDS011;45096;52.302;4.634;2023-03-17T10:51:44;5.90;;;4.78;;
56653;SDS011;45096;52.302;4.634;2023-03-17T10:54:15;4.93;;;4.10;;
56653;SDS011;45096;52.302;4.634;2023-03-17T10:56:41;5.72;;;4.38;;
56653;SDS011;45096;52.302;4.634;2023-03-17T10:59:12;8.13;;;4.80;;
56653;SDS011;45096;52.302;4.634;2023-03-17T11:01:43;7.38;;;4.15;;
56653;SDS011;45096;52.302;4.634;2023-03-17T11:04:26;6.25;;;4.25;;
56653;SDS011;45096;52.302;4.634;2023-03-17T11:06:54;5.38;;;4.50;;
56653;SDS011;45096;52.302;4.634;2023-03-17T11:09:20;5.13;;;4.10;;
56653;SDS011;45096;52.302;4.634;2023-03-17T11:11:46;5.55;;;4.88;;
56653;SDS011;45096;52.302;4.634;2023-03-17T11:14:14;4.75;;;4.10;;
56653;SDS011;45096;52.302;4.634;2023-03-17T11:16:44;6.20;;;4.60;;
56653;SDS011;45096;52.302;4.634;2023-03-17T11:19:15;4.95;;;4.53;;
56653;SDS011;45096;52.302;4.634;2023-03-17T11:21:45;7.22;;;4.78;;
56653;SDS011;45096;52.302;4.634;2023-03-17T11:24:15;4.80;;;4.40;;
56653;SDS011;45096;52.302;4.634;2023-03-17T11:26:52;5.50;;;4.60;;
56653;SDS011;45096;52.302;4.634;2023-03-17T11:29:22;6.82;;;4.70;;
56653;SDS011;45096;52.302;4.634;2023-03-17T11:31:53;4.43;;;4.03;;
56653;SDS011;45096;52.302;4.634;2023-03-17T11:34:24;5.97;;;4.57;;
56653;SDS011;45096;52.302;4.634;2023-03-17T11:36:58;4.35;;;4.03;;
56653;SDS011;45096;52.302;4.634;2023-03-17T11:39:28;4.65;;;4.15;;
56653;SDS011;45096;52.302;4.634;2023-03-17T11:42:02;4.35;;;3.97;;
56653;SDS011;45096;52.302;4.634;2023-03-17T11:47:39;5.15;;;4.22;;
56653;SDS011;45096;52.302;4.634;2023-03-17T11:50:13;6.57;;;4.45;;
56653;SDS011;45096;52.302;4.634;2023-03-17T11:52:47;5.28;;;4.78;;
56653;SDS011;45096;52.302;4.634;2023-03-17T11:55:19;5.45;;;4.25;;
56653;SDS011;45096;52.302;4.634;2023-03-17T11:57:47;5.28;;;4.78;;
56653;SDS011;45096;52.302;4.634;2023-03-17T12:00:17;4.60;;;4.20;;
56653;SDS011;45096;52.302;4.634;2023-03-17T12:02:47;8.45;;;4.90;;
56653;SDS011;45096;52.302;4.634;2023-03-17T12:05:18;4.97;;;4.50;;
56653;SDS011;45096;52.302;4.634;2023-03-17T12:07:48;6.68;;;4.70;;
56653;SDS011;45096;52.302;4.634;2023-03-17T12:10:17;6.47;;;5.65;;
56653;SDS011;45096;52.302;4.634;2023-03-17T12:12:46;6.80;;;4.65;;
56653;SDS011;45096;52.302;4.634;2023-03-17T12:15:15;8.90;;;5.38;;
56653;SDS011;45096;52.302;4.634;2023-03-17T12:17:46;7.75;;;5.35;;
56653;SDS011;45096;52.302;4.634;2023-03-17T12:20:14;5.55;;;4.30;;
56653;SDS011;45096;52.302;4.634;2023-03-17T12:22:42;7.07;;;5.20;;
56653;SDS011;45096;52.302;4.634;2023-03-17T12:25:12;8.30;;;4.85;;
56653;SDS011;45096;52.302;4.634;2023-03-17T12:27:43;5.97;;;4.30;;
56653;SDS011;45096;52.302;4.634;2023-03-17T12:30:16;8.82;;;5.47;;
56653;SDS011;45096;52.302;4.634;2023-03-17T12:32:48;9.00;;;5.25;;
56653;SDS011;45096;52.302;4.634;2023-03-17T12:35:26;4.63;;;4.13;;
56653;SDS011;45096;52.302;4.634;2023-03-17T12:37:54;8.75;;;4.97;;
56653;SDS011;45096;52.302;4.634;2023-03-17T12:40:21;4.05;;;3.67;;
56653;SDS011;45096;52.302;4.634;2023-03-17T12:42:50;8.18;;;5.57;;
56653;SDS011;45096;52.302;4.634;2023-03-17T12:48:12;4.53;;;4.13;;
56653;SDS011;45096;52.302;4.634;2023-03-17T12:50:48;4.88;;;4.43;;
56653;SDS011;45096;52.302;4.634;2023-03-17T12:53:24;5.75;;;4.30;;
56653;SDS011;45096;52.302;4.634;2023-03-17T12:55:55;6.45;;;5.03;;
56653;SDS011;45096;52.302;4.634;2023-03-17T12:58:27;6.72;;;4.95;;
56653;SDS011;45096;52.302;4.634;2023-03-17T13:00:55;5.50;;;4.78;;
56653;SDS011;45096;52.302;4.634;2023-03-17T13:03:25;4.80;;;3.65;;
56653;SDS011;45096;52.302;4.634;2023-03-17T13:05:52;4.15;;;3.85;;
56653;SDS011;45096;52.302;4.634;2023-03-17T13:08:24;5.00;;;4.13;;
56653;SDS011;45096;52.302;4.634;2023-03-17T13:10:50;7.30;;;4.28;;
56653;SDS011;45096;52.302;4.634;2023-03-17T13:13:22;4.35;;;3.95;;
56653;SDS011;45096;52.302;4.634;2023-03-17T13:15:59;6.10;;;4.07;;
56653;SDS011;45096;52.302;4.634;2023-03-17T13:21:15;5.10;;;4.60;;
56653;SDS011;45096;52.302;4.634;2023-03-17T13:23:43;7.03;;;5.10;;
56653;SDS011;45096;52.302;4.634;2023-03-17T13:26:10;6.72;;;4.90;;
56653;SDS011;45096;52.302;4.634;2023-03-17T13:28:42;6.70;;;4.93;;
56653;SDS011;45096;52.302;4.634;2023-03-17T13:31:10;4.90;;;4.13;;
56653;SDS011;45096;52.302;4.634;2023-03-17T13:33:40;4.60;;;4.20;;
56653;SDS011;45096;52.302;4.634;2023-03-17T13:36:27;4.35;;;3.97;;
56653;SDS011;45096;52.302;4.634;2023-03-17T13:41:55;5.13;;;4.63;;
56653;SDS011;45096;52.302;4.634;2023-03-17T13:44:37;5.57;;;4.45;;
56653;SDS011;45096;52.302;4.634;2023-03-17T13:47:26;5.72;;;4.82;;
56653;SDS011;45096;52.302;4.634;2023-03-17T13:49:56;4.32;;;3.90;;
56653;SDS011;45096;52.302;4.634;2023-03-17T13:52:25;7.03;;;5.18;;
56653;SDS011;45096;52.302;4.634;2023-03-17T13:54:57;6.32;;;4.40;;
56653;SDS011;45096;52.302;4.634;2023-03-17T13:57:27;4.28;;;3.97;;
56653;SDS011;45096;52.302;4.634;2023-03-17T13:59:56;4.85;;;4.35;;
56653;SDS011;45096;52.302;4.634;2023-03-17T14:02:24;6.75;;;5.35;;
56653;SDS011;45096;52.302;4.634;2023-03-17T14:04:51;6.90;;;5.75;;
56653;SDS011;45096;52.302;4.634;2023-03-17T14:07:19;5.93;;;5.43;;
56653;SDS011;45096;52.302;4.634;2023-03-17T14:09:46;5.80;;;5.18;;
56653;SDS011;45096;52.302;4.634;2023-03-17T14:12:16;8.30;;;5.63;;
56653;SDS011;45096;52.302;4.634;2023-03-17T14:14:47;8.40;;;5.65;;
56653;SDS011;45096;52.302;4.634;2023-03-17T14:17:15;8.40;;;5.38;;
56653;SDS011;45096;52.302;4.634;2023-03-17T14:19:58;6.68;;;4.97;;
56653;SDS011;45096;52.302;4.634;2023-03-17T14:22:24;6.45;;;5.18;;
56653;SDS011;45096;52.302;4.634;2023-03-17T14:24:50;7.75;;;5.45;;
56653;SDS011;45096;52.302;4.634;2023-03-17T14:27:16;7.75;;;5.53;;
56653;SDS011;45096;52.302;4.634;2023-03-17T14:29:41;8.43;;;5.95;;
56653;SDS011;45096;52.302;4.634;2023-03-17T14:32:10;6.95;;;5.43;;
56653;SDS011;45096;52.302;4.634;2023-03-17T14:34:42;8.73;;;5.78;;
56653;SDS011;45096;52.302;4.634;2023-03-17T14:37:08;8.75;;;5.07;;
56653;SDS011;45096;52.302;4.634;2023-03-17T14:39:35;6.60;;;4.85;;
56653;SDS011;45096;52.302;4.634;2023-03-17T14:42:08;5.75;;;5.15;;
56653;SDS011;45096;52.302;4.634;2023-03-17T14:44:36;5.93;;;4.78;;
56653;SDS011;45096;52.302;4.634;2023-03-17T14:47:03;7.95;;;4.72;;
56653;SDS011;45096;52.302;4.634;2023-03-17T14:49:30;5.60;;;5.03;;
56653;SDS011;45096;52.302;4.634;2023-03-17T14:51:57;4.97;;;4.47;;
56653;SDS011;45096;52.302;4.634;2023-03-17T14:54:22;4.97;;;4.10;;
56653;SDS011;45096;52.302;4.634;2023-03-17T14:56:50;6.20;;;4.82;;
56653;SDS011;45096;52.302;4.634;2023-03-17T14:59:17;6.63;;;4.82;;